sensor_id;sensor_type;location;lat;lon;timestamp;P1;durP1;ratioP1;P2;durP2;ratioP2
33022;SDS011;19390;51.460;5.710;2023-07-13T00:02:22;15.38;;;2.13;;
33022;SDS011;19390;51.460;5.710;2023-07-13T00:04:48;9.40;;;1.67;;
33022;SDS011;19390;51.460;5.710;2023-07-13T00:07:14;11.98;;;2.47;;
33022;SDS011;19390;51.460;5.710;2023-07-13T00:09:40;8.43;;;1.88;;
33022;SDS011;19390;51.460;5.710;2023-07-13T00:12:20;5.40;;;1.60;;
33022;SDS011;19390;51.460;5.710;2023-07-13T00:14:49;6.57;;;1.85;;
33022;SDS011;19390;51.460;5.710;2023-07-13T00:17:15;5.38;;;1.52;;
33022;SDS011;19390;51.460;5.710;2023-07-13T00:19:41;6.35;;;1.67;;
33022;SDS011;19390;51.460;5.710;2023-07-13T00:22:06;6.10;;;1.50;;
33022;SDS011;19390;51.460;5.710;2023-07-13T00:24:32;6.53;;;1.77;;
33022;SDS011;19390;51.460;5.710;2023-07-13T00:26:57;7.50;;;1.45;;
33022;SDS011;19390;51.460;5.710;2023-07-13T00:29:25;4.85;;;1.88;;
33022;SDS011;19390;51.460;5.710;2023-07-13T00:31:51;5.22;;;2.08;;
33022;SDS011;19390;51.460;5.710;2023-07-13T00:34:16;6.60;;;2.28;;
33022;SDS011;19390;51.460;5.710;2023-07-13T00:36:42;6.30;;;1.90;;
33022;SDS011;19390;51.460;5.710;2023-07-13T00:39:08;7.03;;;1.60;;
33022;SDS011;19390;51.460;5.710;2023-07-13T00:41:34;6.28;;;1.67;;
33022;SDS011;19390;51.460;5.710;2023-07-13T00:44:01;7.28;;;1.65;;
33022;SDS011;19390;51.460;5.710;2023-07-13T00:46:36;8.85;;;2.00;;
33022;SDS011;19390;51.460;5.710;2023-07-13T00:49:06;4.78;;;1.65;;
33022;SDS011;19390;51.460;5.710;2023-07-13T00:51:46;7.22;;;1.90;;
33022;SDS011;19390;51.460;5.710;2023-07-13T00:54:21;6.70;;;2.20;;
33022;SDS011;19390;51.460;5.710;2023-07-13T00:56:50;4.85;;;1.75;;
33022;SDS011;19390;51.460;5.710;2023-07-13T00:59:17;8.48;;;2.67;;
33022;SDS011;19390;51.460;5.710;2023-07-13T01:01:45;6.20;;;1.65;;
33022;SDS011;19390;51.460;5.710;2023-07-13T01:04:11;5.38;;;1.80;;
33022;SDS011;19390;51.460;5.710;2023-07-13T01:06:38;8.75;;;1.83;;
33022;SDS011;19390;51.460;5.710;2023-07-13T01:09:05;8.93;;;1.85;;
33022;SDS011;19390;51.460;5.710;2023-07-13T01:11:33;5.78;;;2.13;;
33022;SDS011;19390;51.460;5.710;2023-07-13T01:13:59;9.10;;;1.80;;
33022;SDS011;19390;51.460;5.710;2023-07-13T01:16:29;6.20;;;2.15;;
33022;SDS011;19390;51.460;5.710;2023-07-13T01:18:57;7.65;;;2.30;;
33022;SDS011;19390;51.460;5.710;2023-07-13T01:21:24;5.63;;;1.90;;
33022;SDS011;19390;51.460;5.710;2023-07-13T01:23:50;8.13;;;2.10;;
33022;SDS011;19390;51.460;5.710;2023-07-13T01:26:16;7.88;;;1.95;;
33022;SDS011;19390;51.460;5.710;2023-07-13T01:28:43;5.50;;;2.00;;
33022;SDS011;19390;51.460;5.710;2023-07-13T01:31:08;7.22;;;2.17;;
33022;SDS011;19390;51.460;5.710;2023-07-13T01:33:36;7.03;;;2.20;;
33022;SDS011;19390;51.460;5.710;2023-07-13T01:36:04;5.70;;;2.15;;
33022;SDS011;19390;51.460;5.710;2023-07-13T01:38:34;5.63;;;1.80;;
33022;SDS011;19390;51.460;5.710;2023-07-13T01:41:01;7.07;;;2.40;;
33022;SDS011;19390;51.460;5.710;2023-07-13T01:43:26;8.20;;;2.10;;
33022;SDS011;19390;51.460;5.710;2023-07-13T01:45:52;10.07;;;2.38;;
33022;SDS011;19390;51.460;5.710;2023-07-13T01:48:18;7.70;;;2.13;;
33022;SDS011;19390;51.460;5.710;2023-07-13T01:50:45;8.70;;;2.83;;
33022;SDS011;19390;51.460;5.710;2023-07-13T01:53:10;6.85;;;1.92;;
33022;SDS011;19390;51.460;5.710;2023-07-13T01:55:36;4.50;;;2.15;;
33022;SDS011;19390;51.460;5.710;2023-07-13T01:58:03;7.60;;;2.33;;
33022;SDS011;19390;51.460;5.710;2023-07-13T02:00:28;9.38;;;2.30;;
33022;SDS011;19390;51.460;5.710;2023-07-13T02:02:54;6.45;;;1.92;;
33022;SDS011;19390;51.460;5.710;2023-07-13T02:05:19;4.57;;;2.17;;
33022;SDS011;19390;51.460;5.710;2023-07-13T02:07:45;8.05;;;2.30;;
33022;SDS011;19390;51.460;5.710;2023-07-13T02:10:11;8.23;;;2.63;;
33022;SDS011;19390;51.460;5.710;2023-07-13T02:12:37;8.10;;;2.17;;
33022;SDS011;19390;51.460;5.710;2023-07-13T02:15:04;5.60;;;2.50;;
33022;SDS011;19390;51.460;5.710;2023-07-13T02:17:30;13.68;;;2.55;;
33022;SDS011;19390;51.460;5.710;2023-07-13T02:19:57;13.68;;;2.58;;
33022;SDS011;19390;51.460;5.710;2023-07-13T02:22:22;10.88;;;2.22;;
33022;SDS011;19390;51.460;5.710;2023-07-13T02:24:49;10.43;;;2.67;;
33022;SDS011;19390;51.460;5.710;2023-07-13T02:27:15;8.05;;;2.72;;
33022;SDS011;19390;51.460;5.710;2023-07-13T02:29:41;8.43;;;2.72;;
33022;SDS011;19390;51.460;5.710;2023-07-13T02:32:07;7.85;;;2.35;;
33022;SDS011;19390;51.460;5.710;2023-07-13T02:34:33;10.45;;;2.60;;
33022;SDS011;19390;51.460;5.710;2023-07-13T02:36:59;7.25;;;2.78;;
33022;SDS011;19390;51.460;5.710;2023-07-13T02:39:24;13.48;;;2.70;;
33022;SDS011;19390;51.460;5.710;2023-07-13T02:41:50;12.10;;;2.58;;
33022;SDS011;19390;51.460;5.710;2023-07-13T02:44:15;10.40;;;2.28;;
33022;SDS011;19390;51.460;5.710;2023-07-13T02:46:41;10.35;;;2.33;;
33022;SDS011;19390;51.460;5.710;2023-07-13T02:49:07;14.43;;;2.92;;
33022;SDS011;19390;51.460;5.710;2023-07-13T02:51:33;13.70;;;2.85;;
33022;SDS011;19390;51.460;5.710;2023-07-13T02:53:59;8.65;;;2.53;;
33022;SDS011;19390;51.460;5.710;2023-07-13T02:56:26;8.65;;;2.28;;
33022;SDS011;19390;51.460;5.710;2023-07-13T02:58:53;8.15;;;2.65;;
33022;SDS011;19390;51.460;5.710;2023-07-13T03:01:20;10.18;;;2.63;;
33022;SDS011;19390;51.460;5.710;2023-07-13T03:03:47;11.07;;;2.58;;
33022;SDS011;19390;51.460;5.710;2023-07-13T03:06:13;9.80;;;2.40;;
33022;SDS011;19390;51.460;5.710;2023-07-13T03:08:40;12.90;;;2.90;;
33022;SDS011;19390;51.460;5.710;2023-07-13T03:11:10;9.40;;;2.92;;
33022;SDS011;19390;51.460;5.710;2023-07-13T03:13:39;7.82;;;2.38;;
33022;SDS011;19390;51.460;5.710;2023-07-13T03:16:05;8.38;;;2.78;;
33022;SDS011;19390;51.460;5.710;2023-07-13T03:18:31;12.20;;;3.42;;
33022;SDS011;19390;51.460;5.710;2023-07-13T03:20:57;9.55;;;2.55;;
33022;SDS011;19390;51.460;5.710;2023-07-13T03:23:23;10.80;;;3.00;;
33022;SDS011;19390;51.460;5.710;2023-07-13T03:25:50;7.10;;;2.60;;
33022;SDS011;19390;51.460;5.710;2023-07-13T03:28:15;11.32;;;2.65;;
33022;SDS011;19390;51.460;5.710;2023-07-13T03:30:41;10.13;;;2.88;;
33022;SDS011;19390;51.460;5.710;2023-07-13T03:33:07;13.45;;;3.15;;
33022;SDS011;19390;51.460;5.710;2023-07-13T03:35:33;8.02;;;2.67;;
33022;SDS011;19390;51.460;5.710;2023-07-13T03:37:59;12.25;;;3.33;;
33022;SDS011;19390;51.460;5.710;2023-07-13T03:40:26;13.57;;;3.20;;
33022;SDS011;19390;51.460;5.710;2023-07-13T03:42:52;8.15;;;2.72;;
33022;SDS011;19390;51.460;5.710;2023-07-13T03:45:18;9.68;;;3.13;;
33022;SDS011;19390;51.460;5.710;2023-07-13T03:47:44;10.00;;;3.10;;
33022;SDS011;19390;51.460;5.710;2023-07-13T03:50:10;7.53;;;2.97;;
33022;SDS011;19390;51.460;5.710;2023-07-13T03:52:36;10.88;;;2.92;;
33022;SDS011;19390;51.460;5.710;2023-07-13T03:55:01;7.13;;;2.90;;
33022;SDS011;19390;51.460;5.710;2023-07-13T03:57:27;10.77;;;3.65;;
33022;SDS011;19390;51.460;5.710;2023-07-13T03:59:53;11.70;;;2.97;;
33022;SDS011;19390;51.460;5.710;2023-07-13T04:02:18;8.13;;;3.40;;
33022;SDS011;19390;51.460;5.710;2023-07-13T04:04:45;8.77;;;3.70;;
33022;SDS011;19390;51.460;5.710;2023-07-13T04:07:11;11.15;;;3.58;;
33022;SDS011;19390;51.460;5.710;2023-07-13T04:09:37;10.18;;;3.50;;
33022;SDS011;19390;51.460;5.710;2023-07-13T04:12:03;13.40;;;3.78;;
33022;SDS011;19390;51.460;5.710;2023-07-13T04:14:29;12.50;;;3.75;;
33022;SDS011;19390;51.460;5.710;2023-07-13T04:16:55;9.40;;;3.30;;
33022;SDS011;19390;51.460;5.710;2023-07-13T04:19:21;9.50;;;3.67;;
33022;SDS011;19390;51.460;5.710;2023-07-13T04:21:46;14.40;;;3.75;;
33022;SDS011;19390;51.460;5.710;2023-07-13T04:24:12;12.35;;;3.80;;
33022;SDS011;19390;51.460;5.710;2023-07-13T04:26:38;10.90;;;3.88;;
33022;SDS011;19390;51.460;5.710;2023-07-13T04:29:04;13.30;;;4.50;;
33022;SDS011;19390;51.460;5.710;2023-07-13T04:31:31;16.60;;;4.20;;
33022;SDS011;19390;51.460;5.710;2023-07-13T04:33:57;18.10;;;4.68;;
33022;SDS011;19390;51.460;5.710;2023-07-13T04:36:22;16.05;;;5.05;;
33022;SDS011;19390;51.460;5.710;2023-07-13T04:38:52;17.65;;;4.07;;
33022;SDS011;19390;51.460;5.710;2023-07-13T04:41:18;14.23;;;4.40;;
33022;SDS011;19390;51.460;5.710;2023-07-13T04:43:45;14.30;;;4.40;;
33022;SDS011;19390;51.460;5.710;2023-07-13T04:46:11;13.32;;;4.65;;
33022;SDS011;19390;51.460;5.710;2023-07-13T04:48:38;14.27;;;5.07;;
33022;SDS011;19390;51.460;5.710;2023-07-13T04:51:04;16.55;;;4.97;;
33022;SDS011;19390;51.460;5.710;2023-07-13T04:53:30;14.55;;;5.00;;
33022;SDS011;19390;51.460;5.710;2023-07-13T04:55:57;13.88;;;4.80;;
33022;SDS011;19390;51.460;5.710;2023-07-13T04:58:23;15.02;;;4.75;;
33022;SDS011;19390;51.460;5.710;2023-07-13T05:00:59;14.64;;;4.76;;
33022;SDS011;19390;51.460;5.710;2023-07-13T05:03:26;19.10;;;5.97;;
33022;SDS011;19390;51.460;5.710;2023-07-13T05:05:56;16.48;;;5.18;;
33022;SDS011;19390;51.460;5.710;2023-07-13T05:08:23;14.32;;;4.63;;
33022;SDS011;19390;51.460;5.710;2023-07-13T05:10:49;11.88;;;5.18;;
33022;SDS011;19390;51.460;5.710;2023-07-13T05:13:15;17.48;;;5.28;;
33022;SDS011;19390;51.460;5.710;2023-07-13T05:15:41;20.08;;;5.50;;
33022;SDS011;19390;51.460;5.710;2023-07-13T05:18:06;19.38;;;5.68;;
33022;SDS011;19390;51.460;5.710;2023-07-13T05:20:32;12.35;;;4.93;;
33022;SDS011;19390;51.460;5.710;2023-07-13T05:22:58;15.45;;;5.28;;
33022;SDS011;19390;51.460;5.710;2023-07-13T05:25:23;15.57;;;4.78;;
33022;SDS011;19390;51.460;5.710;2023-07-13T05:27:49;15.88;;;5.72;;
33022;SDS011;19390;51.460;5.710;2023-07-13T05:30:15;16.55;;;5.75;;
33022;SDS011;19390;51.460;5.710;2023-07-13T05:32:41;12.80;;;5.07;;
33022;SDS011;19390;51.460;5.710;2023-07-13T05:35:07;16.92;;;5.93;;
33022;SDS011;19390;51.460;5.710;2023-07-13T05:37:33;15.73;;;5.50;;
33022;SDS011;19390;51.460;5.710;2023-07-13T05:39:58;19.65;;;5.57;;
33022;SDS011;19390;51.460;5.710;2023-07-13T05:42:24;14.38;;;6.00;;
33022;SDS011;19390;51.460;5.710;2023-07-13T05:44:50;18.90;;;6.03;;
33022;SDS011;19390;51.460;5.710;2023-07-13T05:47:15;19.65;;;6.18;;
33022;SDS011;19390;51.460;5.710;2023-07-13T05:49:41;15.77;;;5.95;;
33022;SDS011;19390;51.460;5.710;2023-07-13T05:52:07;18.98;;;5.97;;
33022;SDS011;19390;51.460;5.710;2023-07-13T05:54:32;15.25;;;6.18;;
33022;SDS011;19390;51.460;5.710;2023-07-13T05:56:58;19.42;;;7.00;;
33022;SDS011;19390;51.460;5.710;2023-07-13T05:59:24;22.08;;;6.90;;
33022;SDS011;19390;51.460;5.710;2023-07-13T06:01:50;21.55;;;6.82;;
33022;SDS011;19390;51.460;5.710;2023-07-13T06:04:17;18.73;;;6.25;;
33022;SDS011;19390;51.460;5.710;2023-07-13T06:06:44;19.30;;;6.63;;
33022;SDS011;19390;51.460;5.710;2023-07-13T06:09:09;15.95;;;5.70;;
33022;SDS011;19390;51.460;5.710;2023-07-13T06:11:35;21.05;;;5.97;;
33022;SDS011;19390;51.460;5.710;2023-07-13T06:14:01;21.45;;;6.25;;
33022;SDS011;19390;51.460;5.710;2023-07-13T06:16:26;20.13;;;7.18;;
33022;SDS011;19390;51.460;5.710;2023-07-13T06:18:52;25.52;;;6.60;;
33022;SDS011;19390;51.460;5.710;2023-07-13T06:21:19;21.50;;;6.50;;
33022;SDS011;19390;51.460;5.710;2023-07-13T06:23:46;21.30;;;6.43;;
33022;SDS011;19390;51.460;5.710;2023-07-13T06:26:14;23.95;;;7.13;;
33022;SDS011;19390;51.460;5.710;2023-07-13T06:28:39;26.25;;;7.28;;
33022;SDS011;19390;51.460;5.710;2023-07-13T06:31:06;15.98;;;6.93;;
33022;SDS011;19390;51.460;5.710;2023-07-13T06:33:33;20.90;;;5.82;;
33022;SDS011;19390;51.460;5.710;2023-07-13T06:35:59;21.60;;;6.70;;
33022;SDS011;19390;51.460;5.710;2023-07-13T06:38:26;17.13;;;6.43;;
33022;SDS011;19390;51.460;5.710;2023-07-13T06:40:51;14.38;;;5.63;;
33022;SDS011;19390;51.460;5.710;2023-07-13T06:43:17;18.35;;;5.88;;
33022;SDS011;19390;51.460;5.710;2023-07-13T06:45:46;19.98;;;6.25;;
33022;SDS011;19390;51.460;5.710;2023-07-13T06:48:15;22.02;;;6.45;;
33022;SDS011;19390;51.460;5.710;2023-07-13T06:50:41;16.13;;;6.63;;
33022;SDS011;19390;51.460;5.710;2023-07-13T06:53:08;18.45;;;6.93;;
33022;SDS011;19390;51.460;5.710;2023-07-13T06:55:34;20.70;;;7.45;;
33022;SDS011;19390;51.460;5.710;2023-07-13T06:57:59;19.55;;;7.50;;
33022;SDS011;19390;51.460;5.710;2023-07-13T07:00:25;22.27;;;7.80;;
33022;SDS011;19390;51.460;5.710;2023-07-13T07:02:50;22.00;;;7.78;;
33022;SDS011;19390;51.460;5.710;2023-07-13T07:05:16;20.95;;;7.68;;
33022;SDS011;19390;51.460;5.710;2023-07-13T07:07:42;23.73;;;7.97;;
33022;SDS011;19390;51.460;5.710;2023-07-13T07:10:08;16.33;;;6.85;;
33022;SDS011;19390;51.460;5.710;2023-07-13T07:12:33;23.30;;;7.30;;
33022;SDS011;19390;51.460;5.710;2023-07-13T07:15:00;23.75;;;7.05;;
33022;SDS011;19390;51.460;5.710;2023-07-13T07:17:25;21.02;;;6.85;;
33022;SDS011;19390;51.460;5.710;2023-07-13T07:19:51;17.73;;;6.95;;
33022;SDS011;19390;51.460;5.710;2023-07-13T07:22:19;16.75;;;6.25;;
33022;SDS011;19390;51.460;5.710;2023-07-13T07:24:45;18.38;;;6.38;;
33022;SDS011;19390;51.460;5.710;2023-07-13T07:27:11;18.15;;;6.57;;
33022;SDS011;19390;51.460;5.710;2023-07-13T07:29:36;16.08;;;6.00;;
33022;SDS011;19390;51.460;5.710;2023-07-13T07:32:02;13.25;;;5.47;;
33022;SDS011;19390;51.460;5.710;2023-07-13T07:34:28;19.70;;;6.30;;
33022;SDS011;19390;51.460;5.710;2023-07-13T07:36:54;22.20;;;6.50;;
33022;SDS011;19390;51.460;5.710;2023-07-13T07:39:22;17.40;;;6.90;;
33022;SDS011;19390;51.460;5.710;2023-07-13T07:41:47;21.20;;;6.57;;
33022;SDS011;19390;51.460;5.710;2023-07-13T07:44:13;18.58;;;6.50;;
33022;SDS011;19390;51.460;5.710;2023-07-13T07:46:39;12.90;;;5.63;;
33022;SDS011;19390;51.460;5.710;2023-07-13T07:49:06;19.88;;;5.47;;
33022;SDS011;19390;51.460;5.710;2023-07-13T07:51:31;15.23;;;5.43;;
33022;SDS011;19390;51.460;5.710;2023-07-13T07:53:57;15.32;;;5.60;;
33022;SDS011;19390;51.460;5.710;2023-07-13T07:56:22;19.13;;;6.05;;
33022;SDS011;19390;51.460;5.710;2023-07-13T07:58:48;16.25;;;5.90;;
33022;SDS011;19390;51.460;5.710;2023-07-13T08:01:14;20.75;;;5.75;;
33022;SDS011;19390;51.460;5.710;2023-07-13T08:03:41;17.23;;;5.53;;
33022;SDS011;19390;51.460;5.710;2023-07-13T08:06:06;16.67;;;5.38;;
33022;SDS011;19390;51.460;5.710;2023-07-13T08:08:32;17.08;;;5.13;;
33022;SDS011;19390;51.460;5.710;2023-07-13T08:11:02;9.77;;;4.38;;
33022;SDS011;19390;51.460;5.710;2023-07-13T08:13:29;10.88;;;4.07;;
33022;SDS011;19390;51.460;5.710;2023-07-13T08:15:55;11.57;;;4.68;;
33022;SDS011;19390;51.460;5.710;2023-07-13T08:18:20;15.40;;;4.05;;
33022;SDS011;19390;51.460;5.710;2023-07-13T08:20:46;13.43;;;4.43;;
33022;SDS011;19390;51.460;5.710;2023-07-13T08:23:12;13.35;;;4.05;;
33022;SDS011;19390;51.460;5.710;2023-07-13T08:25:37;9.57;;;3.72;;
33022;SDS011;19390;51.460;5.710;2023-07-13T08:28:03;14.52;;;4.60;;
33022;SDS011;19390;51.460;5.710;2023-07-13T08:30:29;11.25;;;3.92;;
33022;SDS011;19390;51.460;5.710;2023-07-13T08:32:55;6.53;;;2.88;;
33022;SDS011;19390;51.460;5.710;2023-07-13T08:35:20;11.80;;;3.80;;
33022;SDS011;19390;51.460;5.710;2023-07-13T08:37:46;11.57;;;4.07;;
33022;SDS011;19390;51.460;5.710;2023-07-13T08:40:12;9.40;;;3.90;;
33022;SDS011;19390;51.460;5.710;2023-07-13T08:42:50;9.80;;;3.08;;
33022;SDS011;19390;51.460;5.710;2023-07-13T08:45:22;14.53;;;3.77;;
33022;SDS011;19390;51.460;5.710;2023-07-13T08:50:46;9.07;;;2.70;;
33022;SDS011;19390;51.460;5.710;2023-07-13T08:53:20;9.30;;;2.78;;
33022;SDS011;19390;51.460;5.710;2023-07-13T08:55:48;9.20;;;3.40;;
33022;SDS011;19390;51.460;5.710;2023-07-13T08:58:21;8.65;;;2.78;;
33022;SDS011;19390;51.460;5.710;2023-07-13T09:01:10;9.02;;;2.55;;
33022;SDS011;19390;51.460;5.710;2023-07-13T09:04:17;9.50;;;2.45;;
33022;SDS011;19390;51.460;5.710;2023-07-13T09:15:05;11.60;;;3.67;;
33022;SDS011;19390;51.460;5.710;2023-07-13T09:17:51;7.88;;;2.53;;
33022;SDS011;19390;51.460;5.710;2023-07-13T09:22:54;7.88;;;2.30;;
33022;SDS011;19390;51.460;5.710;2023-07-13T09:25:31;10.60;;;2.67;;
33022;SDS011;19390;51.460;5.710;2023-07-13T09:28:00;6.95;;;2.58;;
33022;SDS011;19390;51.460;5.710;2023-07-13T09:33:46;9.80;;;2.72;;
33022;SDS011;19390;51.460;5.710;2023-07-13T09:39:35;7.15;;;2.15;;
33022;SDS011;19390;51.460;5.710;2023-07-13T09:42:01;9.55;;;2.50;;
33022;SDS011;19390;51.460;5.710;2023-07-13T09:44:57;6.95;;;2.40;;
33022;SDS011;19390;51.460;5.710;2023-07-13T09:47:29;9.93;;;2.85;;
33022;SDS011;19390;51.460;5.710;2023-07-13T09:50:03;9.38;;;3.03;;
33022;SDS011;19390;51.460;5.710;2023-07-13T09:55:24;8.27;;;2.25;;
33022;SDS011;19390;51.460;5.710;2023-07-13T09:58:18;7.93;;;2.40;;
33022;SDS011;19390;51.460;5.710;2023-07-13T10:00:55;7.45;;;2.30;;
33022;SDS011;19390;51.460;5.710;2023-07-13T10:03:28;8.65;;;2.35;;
33022;SDS011;19390;51.460;5.710;2023-07-13T10:06:09;6.53;;;2.03;;
33022;SDS011;19390;51.460;5.710;2023-07-13T10:08:44;7.85;;;2.58;;
33022;SDS011;19390;51.460;5.710;2023-07-13T10:16:18;11.73;;;2.35;;
33022;SDS011;19390;51.460;5.710;2023-07-13T10:19:27;9.60;;;3.03;;
33022;SDS011;19390;51.460;5.710;2023-07-13T10:21:58;5.75;;;2.00;;
33022;SDS011;19390;51.460;5.710;2023-07-13T10:24:30;6.65;;;1.95;;
33022;SDS011;19390;51.460;5.710;2023-07-13T10:27:00;7.33;;;2.27;;
33022;SDS011;19390;51.460;5.710;2023-07-13T10:29:53;7.47;;;2.00;;
33022;SDS011;19390;51.460;5.710;2023-07-13T10:32:25;7.25;;;2.05;;
33022;SDS011;19390;51.460;5.710;2023-07-13T10:34:52;5.60;;;1.85;;
33022;SDS011;19390;51.460;5.710;2023-07-13T10:37:24;5.82;;;1.88;;
33022;SDS011;19390;51.460;5.710;2023-07-13T10:39:52;8.20;;;2.25;;
33022;SDS011;19390;51.460;5.710;2023-07-13T10:42:37;7.05;;;2.45;;
33022;SDS011;19390;51.460;5.710;2023-07-13T10:45:17;6.85;;;2.30;;
33022;SDS011;19390;51.460;5.710;2023-07-13T10:47:45;6.43;;;1.67;;
33022;SDS011;19390;51.460;5.710;2023-07-13T10:50:15;5.05;;;1.70;;
33022;SDS011;19390;51.460;5.710;2023-07-13T10:52:46;5.53;;;1.92;;
33022;SDS011;19390;51.460;5.710;2023-07-13T10:58:19;6.93;;;2.03;;
33022;SDS011;19390;51.460;5.710;2023-07-13T11:01:00;5.95;;;1.80;;
33022;SDS011;19390;51.460;5.710;2023-07-13T11:03:32;3.83;;;1.67;;
33022;SDS011;19390;51.460;5.710;2023-07-13T11:06:50;3.08;;;1.67;;
33022;SDS011;19390;51.460;5.710;2023-07-13T11:11:59;8.95;;;1.92;;
33022;SDS011;19390;51.460;5.710;2023-07-13T11:14:27;7.07;;;1.80;;
33022;SDS011;19390;51.460;5.710;2023-07-13T11:16:56;20.92;;;3.22;;
33022;SDS011;19390;51.460;5.710;2023-07-13T11:22:22;11.50;;;2.75;;
33022;SDS011;19390;51.460;5.710;2023-07-13T11:30:18;4.93;;;1.83;;
33022;SDS011;19390;51.460;5.710;2023-07-13T11:33:03;6.03;;;2.20;;
33022;SDS011;19390;51.460;5.710;2023-07-13T11:38:00;6.32;;;2.10;;
33022;SDS011;19390;51.460;5.710;2023-07-13T11:40:27;7.18;;;1.88;;
33022;SDS011;19390;51.460;5.710;2023-07-13T11:43:00;9.13;;;2.30;;
33022;SDS011;19390;51.460;5.710;2023-07-13T11:45:27;5.85;;;1.52;;
33022;SDS011;19390;51.460;5.710;2023-07-13T11:47:53;9.75;;;2.42;;
33022;SDS011;19390;51.460;5.710;2023-07-13T11:50:25;8.85;;;2.45;;
33022;SDS011;19390;51.460;5.710;2023-07-13T11:52:51;6.30;;;2.40;;
33022;SDS011;19390;51.460;5.710;2023-07-13T11:55:21;8.02;;;1.98;;
33022;SDS011;19390;51.460;5.710;2023-07-13T11:57:50;4.00;;;1.63;;
33022;SDS011;19390;51.460;5.710;2023-07-13T12:00:22;5.75;;;1.80;;
33022;SDS011;19390;51.460;5.710;2023-07-13T12:02:52;5.55;;;2.00;;
33022;SDS011;19390;51.460;5.710;2023-07-13T12:05:20;5.85;;;1.83;;
33022;SDS011;19390;51.460;5.710;2023-07-13T12:07:48;9.20;;;1.95;;
33022;SDS011;19390;51.460;5.710;2023-07-13T12:10:23;5.05;;;2.20;;
33022;SDS011;19390;51.460;5.710;2023-07-13T12:15:37;3.78;;;1.30;;
33022;SDS011;19390;51.460;5.710;2023-07-13T12:18:09;4.35;;;1.60;;
33022;SDS011;19390;51.460;5.710;2023-07-13T12:20:38;5.20;;;1.70;;
33022;SDS011;19390;51.460;5.710;2023-07-13T12:28:43;4.95;;;1.92;;
33022;SDS011;19390;51.460;5.710;2023-07-13T12:31:25;5.90;;;1.42;;
33022;SDS011;19390;51.460;5.710;2023-07-13T12:33:58;6.50;;;1.80;;
33022;SDS011;19390;51.460;5.710;2023-07-13T12:36:26;3.85;;;1.90;;
33022;SDS011;19390;51.460;5.710;2023-07-13T12:38:57;9.07;;;2.20;;
33022;SDS011;19390;51.460;5.710;2023-07-13T12:41:29;8.00;;;2.28;;
33022;SDS011;19390;51.460;5.710;2023-07-13T12:43:54;6.47;;;2.50;;
33022;SDS011;19390;51.460;5.710;2023-07-13T12:46:21;5.53;;;2.80;;
33022;SDS011;19390;51.460;5.710;2023-07-13T12:48:53;8.32;;;2.80;;
33022;SDS011;19390;51.460;5.710;2023-07-13T12:51:24;8.30;;;2.47;;
33022;SDS011;19390;51.460;5.710;2023-07-13T12:53:56;9.20;;;2.47;;
33022;SDS011;19390;51.460;5.710;2023-07-13T12:56:33;5.70;;;2.03;;
33022;SDS011;19390;51.460;5.710;2023-07-13T12:59:01;6.22;;;1.83;;
33022;SDS011;19390;51.460;5.710;2023-07-13T13:01:29;7.18;;;2.20;;
33022;SDS011;19390;51.460;5.710;2023-07-13T13:04:00;7.50;;;2.00;;
33022;SDS011;19390;51.460;5.710;2023-07-13T13:06:31;4.32;;;2.05;;
33022;SDS011;19390;51.460;5.710;2023-07-13T13:08:58;5.30;;;2.75;;
33022;SDS011;19390;51.460;5.710;2023-07-13T13:11:25;4.10;;;1.65;;
33022;SDS011;19390;51.460;5.710;2023-07-13T13:13:52;4.40;;;1.48;;
33022;SDS011;19390;51.460;5.710;2023-07-13T13:18:50;3.45;;;1.30;;
33022;SDS011;19390;51.460;5.710;2023-07-13T13:21:17;5.22;;;1.60;;
33022;SDS011;19390;51.460;5.710;2023-07-13T13:23:43;5.97;;;1.58;;
33022;SDS011;19390;51.460;5.710;2023-07-13T13:26:13;4.75;;;1.52;;
33022;SDS011;19390;51.460;5.710;2023-07-13T13:28:40;4.88;;;1.88;;
33022;SDS011;19390;51.460;5.710;2023-07-13T13:31:07;7.95;;;2.17;;
33022;SDS011;19390;51.460;5.710;2023-07-13T13:33:37;5.03;;;1.55;;
33022;SDS011;19390;51.460;5.710;2023-07-13T13:36:12;4.68;;;1.85;;
33022;SDS011;19390;51.460;5.710;2023-07-13T13:38:43;4.38;;;1.75;;
33022;SDS011;19390;51.460;5.710;2023-07-13T13:41:10;5.07;;;1.90;;
33022;SDS011;19390;51.460;5.710;2023-07-13T13:43:38;5.97;;;2.25;;
33022;SDS011;19390;51.460;5.710;2023-07-13T13:46:09;6.07;;;2.88;;
33022;SDS011;19390;51.460;5.710;2023-07-13T13:48:39;5.50;;;2.92;;
33022;SDS011;19390;51.460;5.710;2023-07-13T13:51:11;5.68;;;3.00;;
33022;SDS011;19390;51.460;5.710;2023-07-13T13:53:39;9.27;;;3.28;;
33022;SDS011;19390;51.460;5.710;2023-07-13T13:56:05;6.50;;;2.70;;
33022;SDS011;19390;51.460;5.710;2023-07-13T13:58:31;4.72;;;2.70;;
33022;SDS011;19390;51.460;5.710;2023-07-13T14:00:56;7.85;;;2.40;;
33022;SDS011;19390;51.460;5.710;2023-07-13T14:03:23;7.50;;;2.72;;
33022;SDS011;19390;51.460;5.710;2023-07-13T14:05:49;5.22;;;2.28;;
33022;SDS011;19390;51.460;5.710;2023-07-13T14:08:15;6.95;;;2.67;;
33022;SDS011;19390;51.460;5.710;2023-07-13T14:10:43;5.97;;;2.75;;
33022;SDS011;19390;51.460;5.710;2023-07-13T14:13:17;5.57;;;2.50;;
33022;SDS011;19390;51.460;5.710;2023-07-13T14:15:46;3.88;;;2.40;;
33022;SDS011;19390;51.460;5.710;2023-07-13T14:18:12;6.28;;;2.13;;
33022;SDS011;19390;51.460;5.710;2023-07-13T14:20:43;5.20;;;2.10;;
33022;SDS011;19390;51.460;5.710;2023-07-13T14:23:09;5.05;;;2.42;;
33022;SDS011;19390;51.460;5.710;2023-07-13T14:25:43;5.76;;;2.19;;
33022;SDS011;19390;51.460;5.710;2023-07-13T14:28:19;5.13;;;2.30;;
33022;SDS011;19390;51.460;5.710;2023-07-13T14:30:47;5.65;;;1.70;;
33022;SDS011;19390;51.460;5.710;2023-07-13T14:33:13;5.13;;;2.35;;
33022;SDS011;19390;51.460;5.710;2023-07-13T14:35:39;6.50;;;2.88;;
33022;SDS011;19390;51.460;5.710;2023-07-13T14:38:08;6.05;;;2.63;;
33022;SDS011;19390;51.460;5.710;2023-07-13T14:40:40;5.57;;;2.50;;
33022;SDS011;19390;51.460;5.710;2023-07-13T14:43:09;5.65;;;2.40;;
33022;SDS011;19390;51.460;5.710;2023-07-13T14:45:37;7.80;;;2.17;;
33022;SDS011;19390;51.460;5.710;2023-07-13T14:48:15;3.55;;;1.95;;
33022;SDS011;19390;51.460;5.710;2023-07-13T14:50:47;4.65;;;2.58;;
33022;SDS011;19390;51.460;5.710;2023-07-13T14:53:15;5.38;;;2.20;;
33022;SDS011;19390;51.460;5.710;2023-07-13T14:55:41;3.60;;;1.98;;
33022;SDS011;19390;51.460;5.710;2023-07-13T14:58:07;3.53;;;1.63;;
33022;SDS011;19390;51.460;5.710;2023-07-13T15:00:33;2.83;;;1.50;;
33022;SDS011;19390;51.460;5.710;2023-07-13T15:02:59;2.35;;;1.40;;
33022;SDS011;19390;51.460;5.710;2023-07-13T15:05:27;3.20;;;1.42;;
33022;SDS011;19390;51.460;5.710;2023-07-13T15:07:56;2.72;;;1.40;;
33022;SDS011;19390;51.460;5.710;2023-07-13T15:10:24;2.10;;;1.40;;
33022;SDS011;19390;51.460;5.710;2023-07-13T15:12:58;3.28;;;1.30;;
33022;SDS011;19390;51.460;5.710;2023-07-13T15:15:26;2.15;;;1.00;;
33022;SDS011;19390;51.460;5.710;2023-07-13T15:17:58;2.50;;;1.20;;
33022;SDS011;19390;51.460;5.710;2023-07-13T15:20:28;3.92;;;1.50;;
33022;SDS011;19390;51.460;5.710;2023-07-13T15:22:55;3.22;;;1.30;;
33022;SDS011;19390;51.460;5.710;2023-07-13T15:25:23;2.90;;;1.02;;
33022;SDS011;19390;51.460;5.710;2023-07-13T15:27:51;2.85;;;1.30;;
33022;SDS011;19390;51.460;5.710;2023-07-13T15:30:18;4.47;;;1.27;;
33022;SDS011;19390;51.460;5.710;2023-07-13T15:32:44;1.70;;;0.90;;
33022;SDS011;19390;51.460;5.710;2023-07-13T15:35:18;2.08;;;1.30;;
33022;SDS011;19390;51.460;5.710;2023-07-13T15:37:47;4.05;;;1.40;;
33022;SDS011;19390;51.460;5.710;2023-07-13T15:40:13;2.47;;;1.25;;
33022;SDS011;19390;51.460;5.710;2023-07-13T15:42:43;3.67;;;1.48;;
33022;SDS011;19390;51.460;5.710;2023-07-13T15:45:23;3.10;;;1.70;;
33022;SDS011;19390;51.460;5.710;2023-07-13T15:47:53;4.47;;;1.42;;